createdAt,value
2022-11-02T00:01:03.709Z,60.35
2022-11-02T00:03:33.755Z,59.71
2022-11-02T00:06:00.452Z,59.99
2022-11-02T00:08:27.172Z,60.40
2022-11-02T00:10:54.173Z,59.90
2022-11-02T00:13:20.904Z,60.40
2022-11-02T00:15:47.871Z,60.56
2022-11-02T00:24:44.494Z,60.38
2022-11-02T00:27:11.625Z,60.59
2022-11-02T00:29:38.328Z,60.72
2022-11-02T00:32:08.607Z,60.29
2022-11-02T00:34:35.512Z,60.47
2022-11-02T00:37:04.432Z,60.43
2022-11-02T00:39:31.360Z,60.43
2022-11-02T00:41:58.326Z,60.38
2022-11-02T00:44:26.142Z,60.95
2022-11-02T00:46:53.033Z,61.12
2022-11-02T00:49:20.010Z,60.83
2022-11-02T00:51:47.432Z,60.67
2022-11-02T00:54:14.543Z,60.08
2022-11-02T00:56:41.899Z,60.35
2022-11-02T00:59:08.841Z,60.56
2022-11-02T01:01:39.136Z,60.41
2022-11-02T01:04:07.131Z,60.37
2022-11-02T01:06:33.813Z,60.18
2022-11-02T01:09:00.516Z,60.24
2022-11-02T01:11:27.654Z,60.30
2022-11-02T01:13:54.533Z,60.73
2022-11-02T01:16:21.457Z,60.04
2022-11-02T01:18:55.478Z,60.47
2022-11-02T01:21:22.496Z,60.40
2022-11-02T01:23:49.467Z,60.87
2022-11-02T01:26:16.102Z,60.87
2022-11-02T01:28:42.845Z,60.72
2022-11-02T01:31:10.261Z,60.73
2022-11-02T01:33:37.184Z,61.47
2022-11-02T01:36:04.742Z,61.29
2022-11-02T01:38:32.304Z,61.48
2022-11-02T01:40:59.390Z,61.49
2022-11-02T01:43:29.048Z,61.25
2022-11-02T01:45:56.399Z,61.08
2022-11-02T01:48:25.979Z,61.16
2022-11-02T01:50:53.764Z,61.53
2022-11-02T01:53:20.733Z,61.38
2022-11-02T01:55:47.547Z,61.40
2022-11-02T01:58:14.233Z,61.46
2022-11-02T02:00:41.282Z,61.37
2022-11-02T02:03:09.633Z,61.13
2022-11-02T02:05:39.396Z,61.45
2022-11-02T02:08:08.333Z,61.52
2022-11-02T02:10:36.100Z,61.96
2022-11-02T02:13:04.733Z,61.62
2022-11-02T02:15:36.091Z,61.62
2022-11-02T02:18:10.260Z,61.78
2022-11-02T02:20:46.233Z,61.78
2022-11-02T02:23:32.152Z,61.75
2022-11-02T02:26:01.967Z,61.74
2022-11-02T02:28:47.382Z,62.02
2022-11-02T02:31:14.577Z,63.13
2022-11-02T02:33:41.517Z,62.52
2022-11-02T02:36:27.333Z,62.35
2022-11-02T02:39:19.222Z,61.97
2022-11-02T02:41:56.572Z,62.49
2022-11-02T02:44:23.726Z,61.36
2022-11-02T02:46:55.905Z,61.64
2022-11-02T02:49:27.718Z,62.26
2022-11-02T02:51:56.181Z,61.95
2022-11-02T02:54:25.976Z,62.92
2022-11-02T02:56:54.191Z,62.64
2022-11-02T02:59:21.245Z,62.89
2022-11-02T03:01:48.767Z,61.66
2022-11-02T03:04:19.453Z,62.22
2022-11-02T03:06:52.488Z,62.74
2022-11-02T03:09:22.033Z,61.65
2022-11-02T03:12:01.077Z,62.28
2022-11-02T03:14:36.613Z,61.99
2022-11-02T03:17:06.351Z,62.36
2022-11-02T03:19:52.349Z,62.34
2022-11-02T03:22:45.102Z,61.72
2022-11-02T03:25:17.015Z,62.15
2022-11-02T03:27:47.391Z,61.71
2022-11-02T03:30:15.331Z,61.51
2022-11-02T03:32:53.716Z,62.05
2022-11-02T03:35:22.610Z,62.21
2022-11-02T03:37:51.623Z,62.29
2022-11-02T03:40:26.217Z,61.28
2022-11-02T03:42:53.308Z,61.50
2022-11-02T03:45:21.591Z,62.36
2022-11-02T03:47:57.598Z,61.97
2022-11-02T03:50:24.601Z,62.13
2022-11-02T03:52:54.581Z,62.35
2022-11-02T03:55:26.418Z,62.33
2022-11-02T03:57:53.490Z,62.43
2022-11-02T04:00:21.496Z,63.26
2022-11-02T04:02:52.476Z,62.47
2022-11-02T04:05:20.950Z,62.65
2022-11-02T04:08:07.916Z,62.90
2022-11-02T04:10:35.162Z,64.15
2022-11-02T04:13:20.765Z,63.32
2022-11-02T04:15:47.807Z,63.52
2022-11-02T04:18:33.203Z,63.55
2022-11-02T04:21:00.301Z,63.96
2022-11-02T04:23:46.107Z,64.34
2022-11-02T04:26:13.133Z,63.96
2022-11-02T04:28:40.260Z,64.08
2022-11-02T04:31:07.709Z,63.53
2022-11-02T04:33:35.441Z,63.70
2022-11-02T04:36:05.896Z,63.49
2022-11-02T04:38:42.517Z,63.15
2022-11-02T04:41:38.186Z,63.06
2022-11-02T04:44:06.658Z,62.81
2022-11-02T04:46:35.322Z,62.66
2022-11-02T04:49:02.777Z,63.14
2022-11-02T04:51:30.741Z,62.35
2022-11-02T04:53:58.320Z,62.86
2022-11-02T04:56:25.665Z,63.51
2022-11-02T04:58:53.441Z,63.25
2022-11-02T05:01:21.091Z,62.81
2022-11-02T05:03:48.903Z,63.03
2022-11-02T05:06:16.302Z,63.00
2022-11-02T05:08:43.386Z,63.59
2022-11-02T05:11:10.670Z,64.34
2022-11-02T05:13:38.168Z,64.14
2022-11-02T05:16:05.526Z,66.42
2022-11-02T05:18:32.458Z,64.49
2022-11-02T05:20:59.823Z,64.18
2022-11-02T05:23:27.527Z,65.39
2022-11-02T05:25:55.275Z,64.89
2022-11-02T05:28:22.991Z,67.85
2022-11-02T05:30:50.094Z,68.53
2022-11-02T05:33:17.490Z,66.50
2022-11-02T05:35:44.515Z,67.49
2022-11-02T05:38:13.762Z,67.73
2022-11-02T05:40:40.941Z,70.17
2022-11-02T05:43:09.490Z,69.53
2022-11-02T05:45:37.026Z,68.88
2022-11-02T05:48:04.312Z,68.88
2022-11-02T05:50:31.094Z,69.30
2022-11-02T05:52:59.136Z,67.02
2022-11-02T05:55:25.768Z,65.92
2022-11-02T05:57:53.182Z,66.77
2022-11-02T06:00:20.639Z,66.45
2022-11-02T06:02:48.050Z,66.19
2022-11-02T06:05:15.066Z,65.10
2022-11-02T06:07:41.839Z,64.87
2022-11-02T06:10:08.911Z,64.56
2022-11-02T06:12:35.618Z,64.05
2022-11-02T06:15:02.244Z,63.91
2022-11-02T06:17:29.199Z,63.92
2022-11-02T06:19:55.833Z,63.61
2022-11-02T06:22:22.479Z,63.68
2022-11-02T06:24:49.417Z,64.66
2022-11-02T06:27:16.084Z,64.19
2022-11-02T06:29:43.020Z,64.62
2022-11-02T06:32:09.932Z,64.28
2022-11-02T06:34:36.588Z,63.56
2022-11-02T06:37:03.258Z,63.65
2022-11-02T06:39:30.258Z,63.51
2022-11-02T06:41:56.970Z,62.75
2022-11-02T06:44:25.324Z,63.24
2022-11-02T06:46:52.350Z,63.65
2022-11-02T06:49:19.066Z,64.08
2022-11-02T06:51:45.805Z,63.83
2022-11-02T06:54:12.792Z,63.64
2022-11-02T06:56:40.034Z,63.73
2022-11-02T06:59:07.078Z,64.11
2022-11-02T07:01:35.303Z,64.38
2022-11-02T07:04:03.347Z,64.08
2022-11-02T07:06:30.162Z,63.98
2022-11-02T07:08:57.288Z,64.22
2022-11-02T07:11:24.131Z,63.65
2022-11-02T07:13:50.869Z,63.83
2022-11-02T07:16:17.818Z,64.11
2022-11-02T07:18:44.501Z,64.41
2022-11-02T07:21:12.074Z,64.48
2022-11-02T07:23:39.455Z,63.92
2022-11-02T07:26:06.162Z,65.23
2022-11-02T07:28:32.896Z,64.84
2022-11-02T07:31:00.397Z,64.61
2022-11-02T07:33:27.246Z,64.13
2022-11-02T07:35:53.967Z,64.52
2022-11-02T07:38:20.900Z,64.37
2022-11-02T07:40:48.823Z,63.41
2022-11-02T07:43:15.469Z,65.08
2022-11-02T07:45:42.622Z,63.64
2022-11-02T07:48:09.280Z,63.43
2022-11-02T07:50:35.998Z,62.11
2022-11-02T07:53:03.278Z,62.58
2022-11-02T07:55:30.685Z,61.81
2022-11-02T07:57:58.649Z,62.27
2022-11-02T08:00:26.886Z,62.80
2022-11-02T08:02:54.808Z,62.22
2022-11-02T08:05:21.474Z,62.08
2022-11-02T08:07:48.651Z,61.50
2022-11-02T08:10:15.655Z,62.08
2022-11-02T08:12:42.328Z,62.49
2022-11-02T08:15:09.262Z,61.66
2022-11-02T08:17:36.139Z,61.17
2022-11-02T08:20:02.939Z,63.74
2022-11-02T08:22:29.578Z,63.64
2022-11-02T08:24:56.498Z,63.68
2022-11-02T08:27:23.181Z,65.14
2022-11-02T08:29:50.292Z,63.92
2022-11-02T08:32:17.337Z,64.45
2022-11-02T08:34:44.039Z,65.78
2022-11-02T08:37:10.754Z,64.71
2022-11-02T08:39:37.784Z,64.09
2022-11-02T08:42:04.580Z,64.80
2022-11-02T08:44:31.278Z,65.26
2022-11-02T08:46:58.402Z,63.86
2022-11-02T08:49:25.124Z,65.18
2022-11-02T08:51:51.824Z,63.63
2022-11-02T08:54:18.832Z,64.69
2022-11-02T08:56:45.505Z,64.63
2022-11-02T08:59:12.221Z,65.98
2022-11-02T09:01:39.359Z,65.77
2022-11-02T09:04:06.110Z,65.48
2022-11-02T09:06:32.758Z,62.96
2022-11-02T09:08:59.715Z,62.80
2022-11-02T09:11:26.421Z,62.50
2022-11-02T09:13:56.895Z,62.50
2022-11-02T09:16:25.082Z,63.62
2022-11-02T09:18:52.098Z,61.91
2022-11-02T09:21:18.807Z,62.62
2022-11-02T09:23:48.477Z,62.26
2022-11-02T09:26:15.430Z,61.57
2022-11-02T09:28:42.091Z,61.54
2022-11-02T09:31:11.567Z,60.84
2022-11-02T09:33:38.789Z,62.44
2022-11-02T09:36:06.135Z,61.96
2022-11-02T09:38:33.747Z,62.25
2022-11-02T09:41:03.386Z,61.78
2022-11-02T09:44:02.186Z,62.19
2022-11-02T09:46:30.648Z,61.51
2022-11-02T09:48:58.965Z,60.05
2022-11-02T09:51:26.832Z,60.22
2022-11-02T09:54:17.411Z,61.00
2022-11-02T09:56:44.915Z,60.99
2022-11-02T09:59:13.017Z,61.33
2022-11-02T10:01:57.834Z,61.20
2022-11-02T10:04:30.794Z,59.48
2022-11-02T10:07:17.748Z,59.47
2022-11-02T10:09:55.019Z,60.11
2022-11-02T10:12:24.270Z,60.51
2022-11-02T10:14:54.164Z,60.13
2022-11-02T10:17:22.014Z,59.29
2022-11-02T10:19:51.048Z,58.59
2022-11-02T10:22:17.989Z,58.46
2022-11-02T10:24:45.377Z,58.32
2022-11-02T10:27:29.148Z,58.51
2022-11-02T10:30:03.928Z,58.21
2022-11-02T10:32:31.122Z,58.55
2022-11-02T10:35:04.289Z,58.40
2022-11-02T10:37:52.560Z,58.01
2022-11-02T10:40:41.246Z,57.58
2022-11-02T10:43:15.091Z,57.66
2022-11-02T10:45:53.125Z,56.75
2022-11-02T10:48:27.377Z,56.72
2022-11-02T10:51:08.120Z,56.28
2022-11-02T10:53:48.665Z,55.57
2022-11-02T10:56:19.867Z,55.62
2022-11-02T10:58:49.394Z,56.00
2022-11-02T11:01:16.425Z,54.30
2022-11-02T11:03:52.988Z,54.71
2022-11-02T11:06:19.976Z,54.91
2022-11-02T11:08:49.785Z,54.58
2022-11-02T11:11:21.068Z,54.71
2022-11-02T11:16:45.168Z,55.14
2022-11-02T11:22:25.632Z,55.45
2022-11-02T11:24:52.621Z,54.63
2022-11-02T11:27:20.108Z,54.17
2022-11-02T11:29:54.728Z,54.18
2022-11-02T11:32:24.611Z,54.57
2022-11-02T11:34:56.815Z,53.97
2022-11-02T11:37:24.305Z,53.83
2022-11-02T11:39:54.799Z,54.41
2022-11-02T11:42:22.848Z,53.95
2022-11-02T11:45:00.707Z,55.62
2022-11-02T11:47:28.445Z,55.37
2022-11-02T11:50:10.529Z,54.39
2022-11-02T11:52:42.459Z,54.37
2022-11-02T11:55:23.378Z,54.46
2022-11-02T11:58:06.709Z,54.12
2022-11-02T12:00:34.581Z,54.19
2022-11-02T12:03:02.563Z,55.49
2022-11-02T12:05:29.542Z,56.37
2022-11-02T12:08:14.893Z,55.19
2022-11-02T12:10:48.819Z,54.23
2022-11-02T12:13:21.360Z,54.52
2022-11-02T12:16:00.506Z,52.01
2022-11-02T12:18:27.128Z,52.04
2022-11-02T12:21:00.226Z,52.81
2022-11-02T12:23:32.747Z,53.75
2022-11-02T12:26:06.005Z,52.90
2022-11-02T12:28:39.086Z,52.83
2022-11-02T12:31:10.654Z,53.06
2022-11-02T12:33:48.829Z,52.92
2022-11-02T12:36:34.607Z,53.67
2022-11-02T12:39:03.973Z,54.03
2022-11-02T12:41:43.398Z,52.87
2022-11-02T12:44:13.232Z,51.46
2022-11-02T12:46:56.135Z,51.21
2022-11-02T12:49:36.381Z,50.62
2022-11-02T12:52:03.376Z,49.06
2022-11-02T12:54:35.639Z,49.04
2022-11-02T12:57:06.084Z,50.49
2022-11-02T12:59:33.026Z,48.05
2022-11-02T13:04:39.705Z,49.22
2022-11-02T13:07:11.635Z,48.21
2022-11-02T13:09:39.116Z,50.07
2022-11-02T13:12:06.071Z,48.39
2022-11-02T13:14:46.691Z,46.64
2022-11-02T13:17:16.826Z,47.10
2022-11-02T13:19:44.118Z,47.66
2022-11-02T13:22:10.901Z,47.16
2022-11-02T13:24:42.816Z,47.99
2022-11-02T13:27:35.971Z,48.62
2022-11-02T13:30:13.504Z,48.24
2022-11-02T13:32:43.571Z,47.92
2022-11-02T13:35:17.397Z,47.86
2022-11-02T13:37:54.043Z,47.44
2022-11-02T13:40:33.951Z,47.75
2022-11-02T13:43:21.929Z,48.57
2022-11-02T13:46:05.993Z,48.80
2022-11-02T13:48:48.510Z,49.24
2022-11-02T13:51:25.590Z,49.78
2022-11-02T13:54:03.035Z,49.71
2022-11-02T13:56:35.106Z,50.42
2022-11-02T13:59:09.547Z,50.39
2022-11-02T14:01:38.510Z,50.57
2022-11-02T14:04:06.922Z,50.23
2022-11-02T14:06:54.110Z,50.53
2022-11-02T14:09:26.000Z,50.64
2022-11-02T14:11:56.155Z,50.44
2022-11-02T14:14:26.800Z,50.50
2022-11-02T14:19:48.491Z,50.71
2022-11-02T14:22:18.168Z,51.05
2022-11-02T14:24:53.850Z,50.36
2022-11-02T14:27:22.693Z,50.22
2022-11-02T14:29:53.971Z,50.16
2022-11-02T14:32:22.745Z,50.28
2022-11-02T14:35:09.151Z,50.21
2022-11-02T14:37:35.841Z,50.26
2022-11-02T14:40:21.581Z,50.33
2022-11-02T14:42:57.581Z,49.94
2022-11-02T14:45:26.530Z,50.15
2022-11-02T14:47:57.996Z,50.41
2022-11-02T14:50:24.887Z,50.52
2022-11-02T14:52:59.064Z,50.60
2022-11-02T14:55:27.416Z,50.74
2022-11-02T14:57:58.408Z,50.79
2022-11-02T15:00:31.539Z,50.94
2022-11-02T15:02:58.617Z,51.09
2022-11-02T15:05:35.969Z,51.38
2022-11-02T15:08:07.277Z,51.67
2022-11-02T15:10:38.447Z,51.92
2022-11-02T15:13:20.869Z,52.21
2022-11-02T15:15:50.828Z,52.05
2022-11-02T15:18:30.356Z,52.57
2022-11-02T15:21:12.782Z,52.54
2022-11-02T15:23:58.843Z,52.30
2022-11-02T15:26:31.382Z,52.46
2022-11-02T15:28:59.826Z,52.79
2022-11-02T15:31:26.972Z,53.02
2022-11-02T15:33:55.397Z,53.23
2022-11-02T15:39:27.442Z,53.34
2022-11-02T15:42:03.073Z,53.94
2022-11-02T15:44:33.030Z,53.96
2022-11-02T15:46:59.930Z,54.07
2022-11-02T15:49:33.804Z,53.95
2022-11-02T15:52:00.791Z,54.09
2022-11-02T15:54:46.504Z,54.20
2022-11-02T15:57:19.476Z,54.29
2022-11-02T15:59:49.715Z,54.75
2022-11-02T16:02:24.064Z,54.56
2022-11-02T16:04:51.942Z,54.69
2022-11-02T16:07:18.636Z,54.68
2022-11-02T16:09:48.636Z,54.40
2022-11-02T16:12:21.826Z,54.69
2022-11-02T16:14:52.614Z,54.78
2022-11-02T16:17:23.595Z,54.92
2022-11-02T16:19:50.696Z,54.86
2022-11-02T16:22:24.599Z,55.04
2022-11-02T16:24:52.246Z,54.77
2022-11-02T16:27:18.992Z,55.13
2022-11-02T16:29:45.620Z,54.98
2022-11-02T16:32:12.775Z,55.47
2022-11-02T16:34:40.703Z,55.29
2022-11-02T16:37:10.566Z,55.54
2022-11-02T16:39:38.653Z,55.60
2022-11-02T16:42:10.328Z,55.34
2022-11-02T16:44:38.267Z,55.21
2022-11-02T16:47:08.174Z,55.73
2022-11-02T16:49:35.348Z,56.20
2022-11-02T16:52:19.221Z,56.61
2022-11-02T16:54:45.945Z,56.68
2022-11-02T16:57:19.066Z,57.48
2022-11-02T17:00:09.634Z,56.93
2022-11-02T17:02:37.312Z,56.38
2022-11-02T17:05:06.614Z,56.59
2022-11-02T17:07:33.797Z,57.33
2022-11-02T17:10:01.012Z,56.96
2022-11-02T17:12:37.765Z,57.50
2022-11-02T17:15:11.705Z,56.42
2022-11-02T17:17:39.590Z,56.89
2022-11-02T17:20:14.930Z,56.58
2022-11-02T17:22:55.630Z,57.08
2022-11-02T17:25:22.564Z,56.48
2022-11-02T17:27:50.132Z,57.17
2022-11-02T17:30:43.534Z,56.56
2022-11-02T17:33:14.356Z,56.86
2022-11-02T17:36:04.502Z,57.61
2022-11-02T17:38:32.426Z,57.74
2022-11-02T17:40:59.375Z,56.91
2022-11-02T17:43:26.276Z,56.79
2022-11-02T17:45:56.508Z,57.18
2022-11-02T17:48:24.976Z,57.06
2022-11-02T17:50:52.578Z,57.13
2022-11-02T17:53:19.611Z,57.86
2022-11-02T17:55:46.585Z,57.77
2022-11-02T17:58:14.250Z,57.57
2022-11-02T18:00:42.743Z,58.12
2022-11-02T18:03:14.608Z,58.46
2022-11-02T18:05:43.723Z,58.19
2022-11-02T18:08:14.182Z,58.13
2022-11-02T18:10:41.686Z,58.44
2022-11-02T18:13:15.937Z,58.55
2022-11-02T18:15:43.278Z,58.16
2022-11-02T18:18:10.616Z,58.12
2022-11-02T18:20:41.532Z,57.87
2022-11-02T18:23:16.713Z,57.97
2022-11-02T18:25:44.125Z,57.77
2022-11-02T18:28:14.917Z,57.94
2022-11-02T18:30:52.355Z,57.97
2022-11-02T18:33:19.993Z,57.69
2022-11-02T18:35:47.602Z,57.54
2022-11-02T18:38:14.712Z,56.86
2022-11-02T18:40:43.339Z,56.36
2022-11-02T18:43:10.945Z,56.94
2022-11-02T18:45:38.739Z,56.62
2022-11-02T18:48:06.576Z,56.75
2022-11-02T18:50:34.319Z,56.63
2022-11-02T18:53:01.416Z,56.24
2022-11-02T18:55:28.889Z,56.38
2022-11-02T18:57:56.791Z,56.32
2022-11-02T19:00:24.526Z,56.15
2022-11-02T19:02:52.111Z,56.13
2022-11-02T19:05:38.417Z,56.18
2022-11-02T19:08:24.957Z,55.97
2022-11-02T19:10:52.262Z,55.99
2022-11-02T19:13:20.427Z,56.27
2022-11-02T19:15:47.649Z,56.13
2022-11-02T19:18:14.947Z,56.06
2022-11-02T19:20:42.309Z,55.92
2022-11-02T19:23:10.152Z,55.74
2022-11-02T19:25:37.410Z,55.63
2022-11-02T19:28:05.022Z,55.43
2022-11-02T19:30:34.738Z,55.69
2022-11-02T19:33:03.421Z,55.67
2022-11-02T19:35:31.035Z,55.71
2022-11-02T19:37:58.887Z,55.34
2022-11-02T19:40:26.239Z,55.25
2022-11-02T19:42:54.771Z,55.72
2022-11-02T19:45:22.497Z,56.10
2022-11-02T19:47:50.601Z,55.87
2022-11-02T19:50:18.011Z,56.02
2022-11-02T19:52:47.738Z,55.82
2022-11-02T19:55:17.733Z,55.53
2022-11-02T19:57:45.127Z,55.95
2022-11-02T20:00:13.656Z,56.07
2022-11-02T20:02:41.646Z,55.99
2022-11-02T20:05:09.221Z,55.75
2022-11-02T20:07:37.931Z,55.62
2022-11-02T20:10:05.599Z,55.23
2022-11-02T20:12:36.310Z,55.95
2022-11-02T20:15:03.639Z,55.94
2022-11-02T20:17:42.172Z,56.08
2022-11-02T20:20:19.392Z,55.99
2022-11-02T20:22:46.968Z,56.12
2022-11-02T20:25:14.857Z,56.01
2022-11-02T20:27:43.616Z,56.14
2022-11-02T20:30:11.320Z,55.90
2022-11-02T20:32:38.117Z,56.17
2022-11-02T20:35:09.702Z,56.37
2022-11-02T20:37:39.853Z,56.15
2022-11-02T20:40:07.655Z,56.14
2022-11-02T20:42:35.739Z,56.01
2022-11-02T20:45:03.495Z,56.18
2022-11-02T20:47:31.790Z,56.36
2022-11-02T20:50:00.141Z,56.72
2022-11-02T20:52:27.310Z,56.76
2022-11-02T20:54:57.076Z,56.83
2022-11-02T20:57:30.806Z,57.05
2022-11-02T20:59:57.826Z,56.95
2022-11-02T21:02:24.829Z,57.33
2022-11-02T21:04:52.141Z,57.07
2022-11-02T21:07:19.186Z,57.28
2022-11-02T21:09:46.031Z,57.25
2022-11-02T21:12:31.749Z,57.08
2022-11-02T21:14:59.042Z,57.39
2022-11-02T21:17:26.223Z,57.09
2022-11-02T21:19:58.202Z,57.01
2022-11-02T21:22:29.873Z,56.73
2022-11-02T21:24:58.511Z,57.37
2022-11-02T21:27:25.313Z,57.13
2022-11-02T21:29:52.579Z,57.41
2022-11-02T21:32:19.502Z,57.94
2022-11-02T21:34:46.228Z,57.98
2022-11-02T21:37:15.934Z,57.40
2022-11-02T21:39:43.021Z,57.66
2022-11-02T21:42:09.930Z,57.86
2022-11-02T21:44:36.999Z,57.39
2022-11-02T21:47:03.717Z,57.48
2022-11-02T21:49:30.683Z,56.69
2022-11-02T21:51:57.661Z,56.97
2022-11-02T21:54:24.337Z,56.99
2022-11-02T21:56:52.642Z,56.60
2022-11-02T21:59:19.546Z,57.32
2022-11-02T22:01:49.808Z,56.87
2022-11-02T22:04:17.315Z,57.12
2022-11-02T22:06:44.033Z,57.43
2022-11-02T22:09:11.581Z,57.33
2022-11-02T22:11:38.802Z,56.92
2022-11-02T22:14:05.586Z,56.98
2022-11-02T22:16:34.920Z,56.53
2022-11-02T22:19:03.253Z,57.19
2022-11-02T22:21:30.928Z,56.69
2022-11-02T22:23:58.001Z,56.97
2022-11-02T22:26:25.813Z,56.98
2022-11-02T22:28:52.815Z,56.62
2022-11-02T22:31:23.862Z,56.71
2022-11-02T22:33:51.835Z,56.94
2022-11-02T22:36:19.587Z,57.23
2022-11-02T22:38:51.476Z,57.02
2022-11-02T22:41:20.417Z,57.09
2022-11-02T22:43:47.598Z,57.65
2022-11-02T22:46:17.306Z,57.59
2022-11-02T22:48:44.209Z,57.48
2022-11-02T22:51:11.653Z,57.25
2022-11-02T22:53:38.740Z,57.83
2022-11-02T22:56:11.887Z,57.55
2022-11-02T22:58:42.257Z,57.57
2022-11-02T23:01:10.570Z,57.78
2022-11-02T23:03:37.431Z,58.01
2022-11-02T23:06:06.507Z,57.71
2022-11-02T23:08:35.170Z,57.89
2022-11-02T23:11:20.813Z,57.85
2022-11-02T23:13:51.962Z,57.81
2022-11-02T23:16:24.468Z,57.94
2022-11-02T23:19:13.352Z,57.87
2022-11-02T23:21:41.611Z,58.09
2022-11-02T23:24:26.989Z,57.90
2022-11-02T23:26:53.844Z,57.64
2022-11-02T23:29:39.533Z,57.89
2022-11-02T23:32:26.093Z,58.00
2022-11-02T23:35:12.243Z,58.24
2022-11-02T23:37:39.032Z,57.79
2022-11-02T23:40:06.337Z,57.83
2022-11-02T23:42:33.134Z,57.94
2022-11-02T23:45:00.088Z,57.98
2022-11-02T23:47:48.932Z,57.68
2022-11-02T23:50:35.970Z,58.05
2022-11-02T23:53:21.967Z,57.48
2022-11-02T23:56:07.360Z,57.28
2022-11-02T23:58:34.336Z,57.57
